Observations for CULDROSE NAVY, United Kingdom (EGDR)

EGDR 240920Z 20007KT 4000 BR FEW004 SCT008 BKN020 16/15 Q1016   
EGDR 240850Z 20005KT 4000 BR FEW004 SCT008 OVC020 16/15 Q1016 GRN   
EGDR 240820Z 19004KT 4000 BR FEW004 SCT008 OVC010 16/15 Q1016   
EGDR 240750Z 18003KT 4000 BR FEW004 SCT006 OVC010 15/15 Q1016   
EGDR 240719Z 17003KT 4000 -DZ FEW002 SCT006 OVC010 15/14 Q1015  
EGDR 240650Z 10003KT 4000 BR FEW002 SCT006 OVC010 14/14 Q1015   
EGDR 240619Z 00000KT 4000 BR FEW002 SCT006 OVC010 14/14 Q1015 RMK YLO1  
EGDR 240550Z 00000KT 3500 BR FEW002 SCT005 OVC010 13/13 Q1014 RMK YLO1  
EGDR 240450Z AUTO 32004KT 8000 // BKN003/// 13/13 Q1014 
EGDR 240350Z AUTO 26006KT 8000 // OVC002/// 14/13 Q1014 
EGDR 240250Z AUTO 23006KT 5000 // OVC001/// 14/13 Q1013 
EGDR 240150Z AUTO 23007KT 5000 // OVC001/// 14/14 Q1013 
EGDR 240050Z AUTO 23007KT 0650 // OVC001/// 14/14 Q1013 
EGDR 232350Z AUTO 22005KT 1900 // BKN002/// 14/14 Q1013 
EGDR 232250Z AUTO 12004KT 1700 // SCT009/// SCT220/// 13/13 Q1013   
EGDR 232150Z AUTO 09006KT 3200 // BKN050/// 14/13 Q1012 
EGDR 232050Z AUTO 08012KT 4400 // BKN050/// 14/14 Q1012 
EGDR 231950Z AUTO 08012KT 5000 // FEW002/// BKN050/// 15/14 Q1012   
EGDR 231850Z AUTO 08013KT 6000 // FEW004/// BKN060/// 16/15 Q1011   
EGDR 231750Z AUTO 07012KT 4600 // SCT003/// BKN060/// 15/15 Q1011   
EGDR 231650Z AUTO 07013KT 3400 // SCT002/// BKN050/// 15/14 Q1011   
EGDR 231550Z AUTO 09014KT 2300 // SCT002/// BKN033/// 15/15 Q1012   
EGDR 231450Z AUTO 08017KT 3900 // OVC001/// 15/14 Q1011 
EGDR 231350Z AUTO 08012KT 4900 // BKN002/// 15/15 Q1012 
EGDR 231250Z AUTO 09012KT 6000 // BKN003/// SCT050/// 15/15 Q1012   
EGDR 231150Z AUTO 09012KT 4800 // SCT003/// BKN029/// 15/14 Q1012   
EGDR 231050Z AUTO 10014KT 7000 // BKN005/// BKN050/// 15/14 Q1012   
EGDR 230950Z AUTO 07013KT 9000 // BKN006/// SCT100/// 15/14 Q1012   
EGDR 230850Z AUTO 09013KT 9999 // FEW007/// BKN070/// 15/14 Q1013